Escuela de Aviación
Dean International

Program Pricing

Bienvenidos a Dean International

Durante mas de 20 años, Dean International ha educado a más de 7,000 pilotos en el mundo. Ofreciendo entrenamiento de gran calidad, un personal de servicio amable, una amplia variedad de aviones y mejorando constantemente, nos hemos convertido en una de las escuelas de aviación más grandes y prestigiosas aprobada por la FAA. Situada en el Aeropuerto Ejecutivo Kendall-Tamiami ubicado en Miami, Florida, EE.UU., nuestra escuela de aviación ofrece un ambiente ideal para aprender a volar durante todo el año y esta bien equipado para prestar servicios a los alumnos de la comunidad general de aviación. Visitenos o contáctenos hoy para obtener mas información, o simplemente lea más sobre nuestros programas, si usted es un estudiante internacional interesado en unirse a nuestra escuela.
Tiempo Local
TAF FOR KTMB (Issued: Tue, August 23rd 2016 12:33 PM UTC)
TAF KTMB 231131Z 2312/2412 VRB03KT P6SM FEW025 FEW250
      FM231700 08008KT P6SM FEW030 SCT250
      FM240100 06005KT P6SM FEW025 SCT250
      FM240900 06007KT P6SM VCSH SCT030
     
METAR FOR KTMB (Issued: Tue, August 23rd 2016 1:53 PM UTC):
KTMB 231353Z 04006KT 10SM SCT029 SCT037 31/24 A3015 RMK AO2 SLP207 T03060244

This weather information is provided by the National Weather Service.
It is automatically refreshed every three minutes.
TAF FOR KHST (Issued: Tue, August 23rd 2016 8:03 AM UTC)
TAF KHST 230800Z 2308/2414 06006KT 9999 FEW030 QNH3005INS
      BECMG 2320/2321 04009KT 8000 -SHRA SCT030 QNH3002INS
      TEMPO 2321/2324 03012KT 6000 -TSRA SCT015CB BKN030
      BECMG 2401/2402 03006KT 9999 NSW FEW020 QNH3005INS TX31/2321Z TN27/2312Z
     
METAR FOR KHST (Issued: Tue, August 23rd 2016 1:58 PM UTC):
KHST 231358Z AUTO 04007KT 10SM M 31/25 A3014 RMK AO2 SLP210 T03070254 $

This weather information is provided by the National Weather Service.
It is automatically refreshed every three minutes.
TAF FOR KOPF (Issued: Tue, August 23rd 2016 12:33 PM UTC)
TAF KOPF 231131Z 2312/2412 VRB03KT P6SM FEW025 FEW250
      FM231700 08012KT P6SM SCT030 SCT250
      FM240200 07005KT P6SM SCT250
      FM240900 07007KT P6SM VCSH SCT030
     
METAR FOR KOPF (Issued: Tue, August 23rd 2016 1:53 PM UTC):
KOPF 231353Z 03005KT 10SM SCT022 31/24 A3015 RMK AO2 SLP211 T03110239

This weather information is provided by the National Weather Service.
It is automatically refreshed every three minutes.
TAF FOR KMIA (Issued: Tue, August 23rd 2016 12:36 PM UTC)
TAF KMIA 231131Z 2312/2412 VRB03KT P6SM FEW025 FEW250
      FM231700 08010KT P6SM SCT030 SCT250
      FM240100 07006KT P6SM FEW025 SCT250
      FM240900 06007KT P6SM VCSH SCT030
     
METAR FOR KMIA (Issued: Tue, August 23rd 2016 1:53 PM UTC):
KMIA 231353Z 07007KT 10SM SCT023TCU BKN050 BKN250 31/25 A3015 RMK AO2 SLP208 TCU S T03060250

This weather information is provided by the National Weather Service.
It is automatically refreshed every three minutes.
Diseño por Ariel Llizo
© Dean International Inc. 2012